sensor_id;sensor_type;location;lat;lon;timestamp;P1;durP1;ratioP1;P2;durP2;ratioP2
69998;SDS011;57339;52.156;5.372;2024-02-26T00:02:11;11.70;;;5.43;;
69998;SDS011;57339;52.156;5.372;2024-02-26T00:04:38;12.38;;;5.57;;
69998;SDS011;57339;52.156;5.372;2024-02-26T00:07:05;11.43;;;5.63;;
69998;SDS011;57339;52.156;5.372;2024-02-26T00:09:36;11.70;;;5.55;;
69998;SDS011;57339;52.156;5.372;2024-02-26T00:12:03;13.68;;;6.00;;
69998;SDS011;57339;52.156;5.372;2024-02-26T00:14:31;9.90;;;5.20;;
69998;SDS011;57339;52.156;5.372;2024-02-26T00:16:59;13.70;;;5.78;;
69998;SDS011;57339;52.156;5.372;2024-02-26T00:19:29;11.27;;;5.80;;
69998;SDS011;57339;52.156;5.372;2024-02-26T00:21:56;13.15;;;6.07;;
69998;SDS011;57339;52.156;5.372;2024-02-26T00:24:24;10.25;;;3.80;;
69998;SDS011;57339;52.156;5.372;2024-02-26T00:26:51;13.93;;;6.00;;
69998;SDS011;57339;52.156;5.372;2024-02-26T00:29:19;11.63;;;6.15;;
69998;SDS011;57339;52.156;5.372;2024-02-26T00:31:46;13.45;;;5.85;;
69998;SDS011;57339;52.156;5.372;2024-02-26T00:34:13;12.68;;;6.45;;
69998;SDS011;57339;52.156;5.372;2024-02-26T00:36:40;12.75;;;6.50;;
69998;SDS011;57339;52.156;5.372;2024-02-26T00:39:08;14.70;;;6.97;;
69998;SDS011;57339;52.156;5.372;2024-02-26T00:41:38;13.23;;;6.50;;
69998;SDS011;57339;52.156;5.372;2024-02-26T00:44:06;12.73;;;6.53;;
69998;SDS011;57339;52.156;5.372;2024-02-26T00:46:33;13.82;;;6.75;;
69998;SDS011;57339;52.156;5.372;2024-02-26T00:49:00;13.13;;;6.70;;
69998;SDS011;57339;52.156;5.372;2024-02-26T00:51:28;14.37;;;6.60;;
69998;SDS011;57339;52.156;5.372;2024-02-26T00:53:56;16.08;;;7.45;;
69998;SDS011;57339;52.156;5.372;2024-02-26T00:56:23;12.95;;;6.85;;
69998;SDS011;57339;52.156;5.372;2024-02-26T00:58:50;11.70;;;6.03;;
69998;SDS011;57339;52.156;5.372;2024-02-26T01:01:17;13.10;;;7.13;;
69998;SDS011;57339;52.156;5.372;2024-02-26T01:03:44;12.80;;;7.13;;
69998;SDS011;57339;52.156;5.372;2024-02-26T01:06:11;14.52;;;7.55;;
69998;SDS011;57339;52.156;5.372;2024-02-26T01:08:38;12.65;;;6.38;;
69998;SDS011;57339;52.156;5.372;2024-02-26T01:11:05;14.07;;;6.93;;
69998;SDS011;57339;52.156;5.372;2024-02-26T01:13:33;15.20;;;7.32;;
69998;SDS011;57339;52.156;5.372;2024-02-26T01:16:05;13.37;;;7.13;;
69998;SDS011;57339;52.156;5.372;2024-02-26T01:18:32;15.43;;;7.20;;
69998;SDS011;57339;52.156;5.372;2024-02-26T01:20:59;15.57;;;7.40;;
69998;SDS011;57339;52.156;5.372;2024-02-26T01:23:27;13.60;;;7.13;;
69998;SDS011;57339;52.156;5.372;2024-02-26T01:25:54;14.18;;;7.18;;
69998;SDS011;57339;52.156;5.372;2024-02-26T01:28:21;12.70;;;6.07;;
69998;SDS011;57339;52.156;5.372;2024-02-26T01:30:48;13.02;;;6.68;;
69998;SDS011;57339;52.156;5.372;2024-02-26T01:33:15;15.50;;;7.32;;
69998;SDS011;57339;52.156;5.372;2024-02-26T01:35:42;15.15;;;7.10;;
69998;SDS011;57339;52.156;5.372;2024-02-26T01:38:09;16.88;;;7.25;;
69998;SDS011;57339;52.156;5.372;2024-02-26T01:40:36;13.93;;;7.07;;
69998;SDS011;57339;52.156;5.372;2024-02-26T01:43:03;10.15;;;4.38;;
69998;SDS011;57339;52.156;5.372;2024-02-26T01:45:31;14.60;;;6.85;;
69998;SDS011;57339;52.156;5.372;2024-02-26T01:48:01;14.40;;;7.00;;
69998;SDS011;57339;52.156;5.372;2024-02-26T01:50:29;16.08;;;6.85;;
69998;SDS011;57339;52.156;5.372;2024-02-26T01:52:57;11.30;;;5.40;;
69998;SDS011;57339;52.156;5.372;2024-02-26T01:55:24;14.13;;;6.70;;
69998;SDS011;57339;52.156;5.372;2024-02-26T01:57:53;14.43;;;7.03;;
69998;SDS011;57339;52.156;5.372;2024-02-26T02:00:20;13.18;;;6.60;;
69998;SDS011;57339;52.156;5.372;2024-02-26T02:02:49;12.57;;;6.15;;
69998;SDS011;57339;52.156;5.372;2024-02-26T02:05:16;14.37;;;7.20;;
69998;SDS011;57339;52.156;5.372;2024-02-26T02:07:43;14.50;;;6.93;;
69998;SDS011;57339;52.156;5.372;2024-02-26T02:10:11;13.43;;;6.30;;
69998;SDS011;57339;52.156;5.372;2024-02-26T02:12:38;12.50;;;6.30;;
69998;SDS011;57339;52.156;5.372;2024-02-26T02:15:05;11.85;;;5.47;;
69998;SDS011;57339;52.156;5.372;2024-02-26T02:17:33;13.43;;;6.70;;
69998;SDS011;57339;52.156;5.372;2024-02-26T02:20:00;16.60;;;7.45;;
69998;SDS011;57339;52.156;5.372;2024-02-26T02:22:28;14.38;;;6.90;;
69998;SDS011;57339;52.156;5.372;2024-02-26T02:24:55;12.32;;;4.97;;
69998;SDS011;57339;52.156;5.372;2024-02-26T02:27:22;13.80;;;6.95;;
69998;SDS011;57339;52.156;5.372;2024-02-26T02:29:49;13.93;;;6.97;;
69998;SDS011;57339;52.156;5.372;2024-02-26T02:32:16;13.38;;;6.60;;
69998;SDS011;57339;52.156;5.372;2024-02-26T02:34:45;17.70;;;7.32;;
69998;SDS011;57339;52.156;5.372;2024-02-26T02:37:13;15.48;;;7.00;;
69998;SDS011;57339;52.156;5.372;2024-02-26T02:39:40;13.00;;;6.50;;
69998;SDS011;57339;52.156;5.372;2024-02-26T02:42:06;15.90;;;7.10;;
69998;SDS011;57339;52.156;5.372;2024-02-26T02:44:33;13.52;;;6.30;;
69998;SDS011;57339;52.156;5.372;2024-02-26T02:47:00;15.40;;;6.85;;
69998;SDS011;57339;52.156;5.372;2024-02-26T02:49:28;16.38;;;7.50;;
69998;SDS011;57339;52.156;5.372;2024-02-26T02:51:55;16.60;;;6.75;;
69998;SDS011;57339;52.156;5.372;2024-02-26T02:54:22;15.40;;;7.30;;
69998;SDS011;57339;52.156;5.372;2024-02-26T02:56:49;14.35;;;6.68;;
69998;SDS011;57339;52.156;5.372;2024-02-26T02:59:17;16.63;;;7.30;;
69998;SDS011;57339;52.156;5.372;2024-02-26T03:01:44;15.10;;;7.28;;
69998;SDS011;57339;52.156;5.372;2024-02-26T03:04:11;15.68;;;7.80;;
69998;SDS011;57339;52.156;5.372;2024-02-26T03:06:38;15.70;;;7.27;;
69998;SDS011;57339;52.156;5.372;2024-02-26T03:09:05;14.70;;;6.68;;
69998;SDS011;57339;52.156;5.372;2024-02-26T03:11:33;15.82;;;7.13;;
69998;SDS011;57339;52.156;5.372;2024-02-26T03:14:00;14.00;;;5.40;;
69998;SDS011;57339;52.156;5.372;2024-02-26T03:16:28;15.30;;;7.75;;
69998;SDS011;57339;52.156;5.372;2024-02-26T03:18:55;16.63;;;7.53;;
69998;SDS011;57339;52.156;5.372;2024-02-26T03:21:23;16.05;;;7.75;;
69998;SDS011;57339;52.156;5.372;2024-02-26T03:23:51;17.67;;;7.82;;
69998;SDS011;57339;52.156;5.372;2024-02-26T03:26:18;16.58;;;7.93;;
69998;SDS011;57339;52.156;5.372;2024-02-26T03:28:45;16.77;;;7.88;;
69998;SDS011;57339;52.156;5.372;2024-02-26T03:31:12;17.97;;;8.27;;
69998;SDS011;57339;52.156;5.372;2024-02-26T03:33:39;15.98;;;7.70;;
69998;SDS011;57339;52.156;5.372;2024-02-26T03:36:06;15.90;;;8.15;;
69998;SDS011;57339;52.156;5.372;2024-02-26T03:38:34;16.23;;;8.23;;
69998;SDS011;57339;52.156;5.372;2024-02-26T03:41:00;16.42;;;7.53;;
69998;SDS011;57339;52.156;5.372;2024-02-26T03:43:28;18.70;;;9.53;;
69998;SDS011;57339;52.156;5.372;2024-02-26T03:45:55;14.82;;;7.80;;
69998;SDS011;57339;52.156;5.372;2024-02-26T03:48:22;15.70;;;7.60;;
69998;SDS011;57339;52.156;5.372;2024-02-26T03:50:49;15.57;;;7.65;;
69998;SDS011;57339;52.156;5.372;2024-02-26T03:53:16;15.43;;;7.28;;
69998;SDS011;57339;52.156;5.372;2024-02-26T03:55:43;15.97;;;7.70;;
69998;SDS011;57339;52.156;5.372;2024-02-26T03:58:12;17.17;;;7.90;;
69998;SDS011;57339;52.156;5.372;2024-02-26T04:00:39;18.75;;;9.02;;
69998;SDS011;57339;52.156;5.372;2024-02-26T04:03:06;18.55;;;8.40;;
69998;SDS011;57339;52.156;5.372;2024-02-26T04:05:34;16.33;;;7.53;;
69998;SDS011;57339;52.156;5.372;2024-02-26T04:08:01;18.33;;;8.20;;
69998;SDS011;57339;52.156;5.372;2024-02-26T04:10:29;17.38;;;8.52;;
69998;SDS011;57339;52.156;5.372;2024-02-26T04:12:56;16.50;;;7.90;;
69998;SDS011;57339;52.156;5.372;2024-02-26T04:15:24;14.73;;;7.32;;
69998;SDS011;57339;52.156;5.372;2024-02-26T04:17:51;15.88;;;7.80;;
69998;SDS011;57339;52.156;5.372;2024-02-26T04:20:18;16.07;;;7.20;;
69998;SDS011;57339;52.156;5.372;2024-02-26T04:22:45;15.85;;;6.97;;
69998;SDS011;57339;52.156;5.372;2024-02-26T04:25:12;17.05;;;8.20;;
69998;SDS011;57339;52.156;5.372;2024-02-26T04:27:39;15.40;;;8.15;;
69998;SDS011;57339;52.156;5.372;2024-02-26T04:30:06;15.75;;;7.78;;
69998;SDS011;57339;52.156;5.372;2024-02-26T04:32:34;13.97;;;5.67;;
69998;SDS011;57339;52.156;5.372;2024-02-26T04:35:04;13.77;;;5.65;;
69998;SDS011;57339;52.156;5.372;2024-02-26T04:37:31;15.73;;;6.97;;
69998;SDS011;57339;52.156;5.372;2024-02-26T04:40:01;18.08;;;7.90;;
69998;SDS011;57339;52.156;5.372;2024-02-26T04:42:30;19.40;;;8.48;;
69998;SDS011;57339;52.156;5.372;2024-02-26T04:44:57;17.50;;;8.07;;
69998;SDS011;57339;52.156;5.372;2024-02-26T04:47:25;18.20;;;9.48;;
69998;SDS011;57339;52.156;5.372;2024-02-26T04:49:52;16.95;;;7.70;;
69998;SDS011;57339;52.156;5.372;2024-02-26T04:52:19;17.58;;;8.25;;
69998;SDS011;57339;52.156;5.372;2024-02-26T04:54:46;17.55;;;7.28;;
69998;SDS011;57339;52.156;5.372;2024-02-26T04:57:13;19.03;;;9.20;;
69998;SDS011;57339;52.156;5.372;2024-02-26T04:59:40;18.27;;;9.15;;
69998;SDS011;57339;52.156;5.372;2024-02-26T05:02:07;17.60;;;8.13;;
69998;SDS011;57339;52.156;5.372;2024-02-26T05:04:34;17.13;;;8.55;;
69998;SDS011;57339;52.156;5.372;2024-02-26T05:07:01;17.08;;;8.30;;
69998;SDS011;57339;52.156;5.372;2024-02-26T05:09:29;17.47;;;8.10;;
69998;SDS011;57339;52.156;5.372;2024-02-26T05:11:56;18.00;;;9.13;;
69998;SDS011;57339;52.156;5.372;2024-02-26T05:14:23;15.48;;;7.07;;
69998;SDS011;57339;52.156;5.372;2024-02-26T05:16:52;17.38;;;8.63;;
69998;SDS011;57339;52.156;5.372;2024-02-26T05:19:19;20.17;;;9.35;;
69998;SDS011;57339;52.156;5.372;2024-02-26T05:21:46;18.83;;;9.07;;
69998;SDS011;57339;52.156;5.372;2024-02-26T05:24:13;19.40;;;9.52;;
69998;SDS011;57339;52.156;5.372;2024-02-26T05:26:40;18.80;;;8.95;;
69998;SDS011;57339;52.156;5.372;2024-02-26T05:29:07;18.65;;;9.15;;
69998;SDS011;57339;52.156;5.372;2024-02-26T05:31:34;21.85;;;9.45;;
69998;SDS011;57339;52.156;5.372;2024-02-26T05:34:01;16.60;;;8.17;;
69998;SDS011;57339;52.156;5.372;2024-02-26T05:36:31;20.80;;;9.82;;
69998;SDS011;57339;52.156;5.372;2024-02-26T05:38:59;18.65;;;9.63;;
69998;SDS011;57339;52.156;5.372;2024-02-26T05:41:27;20.50;;;9.35;;
69998;SDS011;57339;52.156;5.372;2024-02-26T05:43:54;14.02;;;7.03;;
69998;SDS011;57339;52.156;5.372;2024-02-26T05:46:22;19.70;;;9.27;;
69998;SDS011;57339;52.156;5.372;2024-02-26T05:48:52;18.25;;;8.00;;
69998;SDS011;57339;52.156;5.372;2024-02-26T05:51:20;20.58;;;9.52;;
69998;SDS011;57339;52.156;5.372;2024-02-26T05:53:47;19.23;;;8.90;;
69998;SDS011;57339;52.156;5.372;2024-02-26T05:56:14;20.88;;;9.75;;
69998;SDS011;57339;52.156;5.372;2024-02-26T05:58:41;21.03;;;9.97;;
69998;SDS011;57339;52.156;5.372;2024-02-26T06:01:09;21.20;;;9.18;;
69998;SDS011;57339;52.156;5.372;2024-02-26T06:03:36;20.85;;;10.32;;
69998;SDS011;57339;52.156;5.372;2024-02-26T06:06:03;20.48;;;9.77;;
69998;SDS011;57339;52.156;5.372;2024-02-26T06:08:31;20.92;;;9.40;;
69998;SDS011;57339;52.156;5.372;2024-02-26T06:10:59;20.90;;;9.40;;
69998;SDS011;57339;52.156;5.372;2024-02-26T06:13:30;20.58;;;8.93;;
69998;SDS011;57339;52.156;5.372;2024-02-26T06:15:58;18.55;;;8.32;;
69998;SDS011;57339;52.156;5.372;2024-02-26T06:18:24;22.10;;;10.38;;
69998;SDS011;57339;52.156;5.372;2024-02-26T06:20:52;21.13;;;9.82;;
69998;SDS011;57339;52.156;5.372;2024-02-26T06:23:19;21.10;;;9.83;;
69998;SDS011;57339;52.156;5.372;2024-02-26T06:25:46;17.55;;;7.88;;
69998;SDS011;57339;52.156;5.372;2024-02-26T06:28:13;19.27;;;8.18;;
69998;SDS011;57339;52.156;5.372;2024-02-26T06:30:40;22.45;;;9.90;;
69998;SDS011;57339;52.156;5.372;2024-02-26T06:33:07;22.63;;;10.40;;
69998;SDS011;57339;52.156;5.372;2024-02-26T06:35:34;24.70;;;10.87;;
69998;SDS011;57339;52.156;5.372;2024-02-26T06:48:42;25.37;;;11.30;;
69998;SDS011;57339;52.156;5.372;2024-02-26T06:51:10;20.63;;;8.63;;
69998;SDS011;57339;52.156;5.372;2024-02-26T06:53:37;27.80;;;11.70;;
69998;SDS011;57339;52.156;5.372;2024-02-26T06:56:06;19.67;;;9.00;;
69998;SDS011;57339;52.156;5.372;2024-02-26T06:58:34;21.83;;;8.95;;
69998;SDS011;57339;52.156;5.372;2024-02-26T07:01:01;27.27;;;11.60;;
69998;SDS011;57339;52.156;5.372;2024-02-26T07:03:31;26.17;;;11.45;;
69998;SDS011;57339;52.156;5.372;2024-02-26T07:06:00;32.22;;;13.95;;
69998;SDS011;57339;52.156;5.372;2024-02-26T07:08:27;28.42;;;12.57;;
69998;SDS011;57339;52.156;5.372;2024-02-26T07:10:55;31.65;;;13.48;;
69998;SDS011;57339;52.156;5.372;2024-02-26T07:13:22;32.47;;;13.50;;
69998;SDS011;57339;52.156;5.372;2024-02-26T07:15:50;29.30;;;12.32;;
69998;SDS011;57339;52.156;5.372;2024-02-26T07:18:17;38.00;;;16.10;;
69998;SDS011;57339;52.156;5.372;2024-02-26T07:20:45;37.45;;;15.88;;
69998;SDS011;57339;52.156;5.372;2024-02-26T07:23:13;35.10;;;13.48;;
69998;SDS011;57339;52.156;5.372;2024-02-26T07:25:41;37.00;;;16.43;;
69998;SDS011;57339;52.156;5.372;2024-02-26T07:28:11;37.65;;;16.63;;
69998;SDS011;57339;52.156;5.372;2024-02-26T07:30:39;31.00;;;14.13;;
69998;SDS011;57339;52.156;5.372;2024-02-26T07:33:06;29.00;;;11.98;;
69998;SDS011;57339;52.156;5.372;2024-02-26T07:35:35;36.63;;;16.45;;
69998;SDS011;57339;52.156;5.372;2024-02-26T07:38:02;28.50;;;11.90;;
69998;SDS011;57339;52.156;5.372;2024-02-26T07:40:30;35.40;;;14.70;;
69998;SDS011;57339;52.156;5.372;2024-02-26T07:43:00;38.65;;;15.75;;
69998;SDS011;57339;52.156;5.372;2024-02-26T07:45:27;32.90;;;13.95;;
69998;SDS011;57339;52.156;5.372;2024-02-26T07:47:54;40.25;;;16.73;;
69998;SDS011;57339;52.156;5.372;2024-02-26T07:50:23;42.47;;;17.77;;
69998;SDS011;57339;52.156;5.372;2024-02-26T07:52:53;38.70;;;17.55;;
69998;SDS011;57339;52.156;5.372;2024-02-26T07:55:20;34.25;;;15.02;;
69998;SDS011;57339;52.156;5.372;2024-02-26T07:57:48;33.33;;;15.15;;
69998;SDS011;57339;52.156;5.372;2024-02-26T08:00:15;33.45;;;15.52;;
69998;SDS011;57339;52.156;5.372;2024-02-26T08:02:43;25.63;;;11.67;;
69998;SDS011;57339;52.156;5.372;2024-02-26T08:05:11;33.03;;;14.02;;
69998;SDS011;57339;52.156;5.372;2024-02-26T08:07:38;25.48;;;12.05;;
69998;SDS011;57339;52.156;5.372;2024-02-26T08:10:06;24.30;;;11.13;;
69998;SDS011;57339;52.156;5.372;2024-02-26T08:12:34;22.88;;;10.45;;
69998;SDS011;57339;52.156;5.372;2024-02-26T08:15:01;19.93;;;9.07;;
69998;SDS011;57339;52.156;5.372;2024-02-26T08:17:29;19.80;;;8.93;;
69998;SDS011;57339;52.156;5.372;2024-02-26T08:19:57;17.88;;;7.97;;
69998;SDS011;57339;52.156;5.372;2024-02-26T08:22:25;20.50;;;10.32;;
69998;SDS011;57339;52.156;5.372;2024-02-26T08:24:52;26.27;;;11.32;;
69998;SDS011;57339;52.156;5.372;2024-02-26T08:27:20;24.63;;;10.70;;
69998;SDS011;57339;52.156;5.372;2024-02-26T08:29:51;19.67;;;8.88;;
69998;SDS011;57339;52.156;5.372;2024-02-26T08:32:18;22.20;;;10.55;;
69998;SDS011;57339;52.156;5.372;2024-02-26T08:34:46;22.88;;;10.63;;
69998;SDS011;57339;52.156;5.372;2024-02-26T08:37:14;22.42;;;10.55;;
69998;SDS011;57339;52.156;5.372;2024-02-26T08:39:41;16.47;;;7.20;;
69998;SDS011;57339;52.156;5.372;2024-02-26T08:42:08;21.65;;;9.63;;
69998;SDS011;57339;52.156;5.372;2024-02-26T08:44:35;20.77;;;9.73;;
69998;SDS011;57339;52.156;5.372;2024-02-26T08:47:06;20.02;;;9.35;;
69998;SDS011;57339;52.156;5.372;2024-02-26T08:49:35;16.13;;;6.90;;
69998;SDS011;57339;52.156;5.372;2024-02-26T08:52:02;17.87;;;8.33;;
69998;SDS011;57339;52.156;5.372;2024-02-26T08:54:34;16.92;;;6.63;;
69998;SDS011;57339;52.156;5.372;2024-02-26T08:57:02;20.17;;;8.27;;
69998;SDS011;57339;52.156;5.372;2024-02-26T08:59:29;19.75;;;8.00;;
69998;SDS011;57339;52.156;5.372;2024-02-26T09:02:04;18.27;;;8.57;;
69998;SDS011;57339;52.156;5.372;2024-02-26T09:04:35;16.60;;;6.53;;
69998;SDS011;57339;52.156;5.372;2024-02-26T09:07:05;15.73;;;6.45;;
69998;SDS011;57339;52.156;5.372;2024-02-26T09:09:33;18.33;;;7.38;;
69998;SDS011;57339;52.156;5.372;2024-02-26T09:12:04;14.75;;;5.78;;
69998;SDS011;57339;52.156;5.372;2024-02-26T09:14:31;16.17;;;7.45;;
69998;SDS011;57339;52.156;5.372;2024-02-26T09:16:59;18.13;;;7.97;;
69998;SDS011;57339;52.156;5.372;2024-02-26T09:19:30;19.15;;;9.20;;
69998;SDS011;57339;52.156;5.372;2024-02-26T09:21:58;18.05;;;8.15;;
69998;SDS011;57339;52.156;5.372;2024-02-26T09:24:26;16.65;;;7.68;;
69998;SDS011;57339;52.156;5.372;2024-02-26T09:26:54;19.05;;;8.43;;
69998;SDS011;57339;52.156;5.372;2024-02-26T09:29:22;18.27;;;8.47;;
69998;SDS011;57339;52.156;5.372;2024-02-26T09:31:50;17.25;;;7.55;;
69998;SDS011;57339;52.156;5.372;2024-02-26T09:34:21;16.35;;;6.40;;
69998;SDS011;57339;52.156;5.372;2024-02-26T09:36:51;16.75;;;7.47;;
69998;SDS011;57339;52.156;5.372;2024-02-26T09:39:27;17.35;;;7.47;;
69998;SDS011;57339;52.156;5.372;2024-02-26T09:41:55;14.97;;;6.20;;
69998;SDS011;57339;52.156;5.372;2024-02-26T09:44:24;15.82;;;7.20;;
69998;SDS011;57339;52.156;5.372;2024-02-26T09:46:52;16.55;;;7.63;;
69998;SDS011;57339;52.156;5.372;2024-02-26T09:49:19;14.40;;;5.78;;
69998;SDS011;57339;52.156;5.372;2024-02-26T09:51:49;14.38;;;6.20;;
69998;SDS011;57339;52.156;5.372;2024-02-26T09:54:18;15.67;;;5.37;;
69998;SDS011;57339;52.156;5.372;2024-02-26T09:56:46;15.60;;;6.97;;
69998;SDS011;57339;52.156;5.372;2024-02-26T09:59:35;17.25;;;6.60;;
69998;SDS011;57339;52.156;5.372;2024-02-26T10:02:12;11.13;;;4.35;;
69998;SDS011;57339;52.156;5.372;2024-02-26T10:04:41;12.07;;;5.38;;
69998;SDS011;57339;52.156;5.372;2024-02-26T10:07:16;12.30;;;5.03;;
69998;SDS011;57339;52.156;5.372;2024-02-26T10:09:44;16.65;;;6.80;;
69998;SDS011;57339;52.156;5.372;2024-02-26T10:12:11;14.32;;;6.28;;
69998;SDS011;57339;52.156;5.372;2024-02-26T10:14:40;14.07;;;6.28;;
69998;SDS011;57339;52.156;5.372;2024-02-26T10:17:09;14.60;;;6.25;;
69998;SDS011;57339;52.156;5.372;2024-02-26T10:19:37;13.43;;;5.23;;
69998;SDS011;57339;52.156;5.372;2024-02-26T10:22:05;16.85;;;7.43;;
69998;SDS011;57339;52.156;5.372;2024-02-26T10:24:36;13.35;;;5.85;;
69998;SDS011;57339;52.156;5.372;2024-02-26T10:27:09;14.20;;;5.57;;
69998;SDS011;57339;52.156;5.372;2024-02-26T10:29:37;13.13;;;4.75;;
69998;SDS011;57339;52.156;5.372;2024-02-26T10:32:04;15.23;;;6.43;;
69998;SDS011;57339;52.156;5.372;2024-02-26T10:34:31;14.75;;;6.47;;
69998;SDS011;57339;52.156;5.372;2024-02-26T10:37:01;13.00;;;5.10;;
69998;SDS011;57339;52.156;5.372;2024-02-26T10:39:32;15.82;;;6.60;;
69998;SDS011;57339;52.156;5.372;2024-02-26T10:42:01;14.80;;;6.38;;
69998;SDS011;57339;52.156;5.372;2024-02-26T10:44:33;14.13;;;5.93;;
69998;SDS011;57339;52.156;5.372;2024-02-26T10:47:01;13.65;;;5.55;;
69998;SDS011;57339;52.156;5.372;2024-02-26T10:49:31;15.52;;;5.65;;
69998;SDS011;57339;52.156;5.372;2024-02-26T10:52:04;13.85;;;6.15;;
69998;SDS011;57339;52.156;5.372;2024-02-26T10:54:36;14.65;;;6.75;;
69998;SDS011;57339;52.156;5.372;2024-02-26T10:57:07;11.33;;;4.93;;
69998;SDS011;57339;52.156;5.372;2024-02-26T10:59:35;15.55;;;6.70;;
69998;SDS011;57339;52.156;5.372;2024-02-26T11:02:04;10.07;;;4.15;;
69998;SDS011;57339;52.156;5.372;2024-02-26T11:04:34;12.45;;;4.57;;
69998;SDS011;57339;52.156;5.372;2024-02-26T11:07:04;14.93;;;6.93;;
69998;SDS011;57339;52.156;5.372;2024-02-26T11:09:37;14.87;;;6.33;;
69998;SDS011;57339;52.156;5.372;2024-02-26T11:12:05;14.20;;;6.35;;
69998;SDS011;57339;52.156;5.372;2024-02-26T11:14:32;13.90;;;6.80;;
69998;SDS011;57339;52.156;5.372;2024-02-26T11:17:05;15.43;;;7.18;;
69998;SDS011;57339;52.156;5.372;2024-02-26T11:19:35;12.90;;;5.65;;
69998;SDS011;57339;52.156;5.372;2024-02-26T11:22:05;15.07;;;6.87;;
69998;SDS011;57339;52.156;5.372;2024-02-26T11:24:46;16.27;;;6.22;;
69998;SDS011;57339;52.156;5.372;2024-02-26T11:27:15;12.32;;;5.57;;
69998;SDS011;57339;52.156;5.372;2024-02-26T11:29:50;16.67;;;7.35;;
69998;SDS011;57339;52.156;5.372;2024-02-26T11:32:20;14.52;;;6.32;;
69998;SDS011;57339;52.156;5.372;2024-02-26T11:34:47;12.30;;;5.23;;
69998;SDS011;57339;52.156;5.372;2024-02-26T11:37:16;13.57;;;6.55;;
69998;SDS011;57339;52.156;5.372;2024-02-26T11:39:45;14.65;;;6.80;;
69998;SDS011;57339;52.156;5.372;2024-02-26T11:42:13;15.80;;;6.82;;
69998;SDS011;57339;52.156;5.372;2024-02-26T11:44:42;14.40;;;6.20;;
69998;SDS011;57339;52.156;5.372;2024-02-26T11:49:55;15.00;;;6.60;;
69998;SDS011;57339;52.156;5.372;2024-02-26T11:52:23;12.95;;;5.63;;
69998;SDS011;57339;52.156;5.372;2024-02-26T11:54:51;13.77;;;6.57;;
69998;SDS011;57339;52.156;5.372;2024-02-26T11:57:25;13.18;;;5.75;;
69998;SDS011;57339;52.156;5.372;2024-02-26T12:00:10;12.70;;;5.10;;
69998;SDS011;57339;52.156;5.372;2024-02-26T12:02:46;14.02;;;6.03;;
69998;SDS011;57339;52.156;5.372;2024-02-26T12:05:20;14.93;;;6.20;;
69998;SDS011;57339;52.156;5.372;2024-02-26T12:07:50;14.23;;;6.32;;
69998;SDS011;57339;52.156;5.372;2024-02-26T12:10:36;14.82;;;6.30;;
69998;SDS011;57339;52.156;5.372;2024-02-26T12:13:08;15.53;;;6.83;;
69998;SDS011;57339;52.156;5.372;2024-02-26T12:15:56;15.65;;;6.05;;
69998;SDS011;57339;52.156;5.372;2024-02-26T12:18:25;16.25;;;6.60;;
69998;SDS011;57339;52.156;5.372;2024-02-26T12:20:59;13.13;;;5.78;;
69998;SDS011;57339;52.156;5.372;2024-02-26T12:23:30;16.15;;;7.43;;
69998;SDS011;57339;52.156;5.372;2024-02-26T12:25:58;13.60;;;6.07;;
69998;SDS011;57339;52.156;5.372;2024-02-26T12:28:29;12.20;;;6.05;;
69998;SDS011;57339;52.156;5.372;2024-02-26T12:30:56;13.85;;;6.28;;
69998;SDS011;57339;52.156;5.372;2024-02-26T12:33:25;14.18;;;6.18;;
69998;SDS011;57339;52.156;5.372;2024-02-26T12:35:53;15.77;;;6.18;;
69998;SDS011;57339;52.156;5.372;2024-02-26T12:38:21;15.67;;;6.97;;
69998;SDS011;57339;52.156;5.372;2024-02-26T12:40:48;13.07;;;6.32;;
69998;SDS011;57339;52.156;5.372;2024-02-26T12:43:16;12.15;;;5.72;;
69998;SDS011;57339;52.156;5.372;2024-02-26T12:45:44;11.60;;;5.45;;
69998;SDS011;57339;52.156;5.372;2024-02-26T12:48:12;14.80;;;6.07;;
69998;SDS011;57339;52.156;5.372;2024-02-26T12:50:39;12.60;;;5.50;;
69998;SDS011;57339;52.156;5.372;2024-02-26T12:53:06;11.30;;;5.45;;
69998;SDS011;57339;52.156;5.372;2024-02-26T12:55:34;14.95;;;7.03;;
69998;SDS011;57339;52.156;5.372;2024-02-26T12:58:02;15.43;;;6.53;;
69998;SDS011;57339;52.156;5.372;2024-02-26T13:00:29;14.07;;;6.07;;
69998;SDS011;57339;52.156;5.372;2024-02-26T13:02:59;14.27;;;6.40;;
69998;SDS011;57339;52.156;5.372;2024-02-26T13:05:26;14.13;;;6.30;;
69998;SDS011;57339;52.156;5.372;2024-02-26T13:07:54;13.32;;;5.80;;
69998;SDS011;57339;52.156;5.372;2024-02-26T13:10:22;10.40;;;4.20;;
69998;SDS011;57339;52.156;5.372;2024-02-26T13:12:50;14.23;;;5.97;;
69998;SDS011;57339;52.156;5.372;2024-02-26T13:15:17;12.50;;;5.00;;
69998;SDS011;57339;52.156;5.372;2024-02-26T13:17:47;16.67;;;6.75;;
69998;SDS011;57339;52.156;5.372;2024-02-26T13:23:12;13.20;;;5.95;;
69998;SDS011;57339;52.156;5.372;2024-02-26T13:25:40;14.50;;;6.57;;
69998;SDS011;57339;52.156;5.372;2024-02-26T13:28:15;12.07;;;5.33;;
69998;SDS011;57339;52.156;5.372;2024-02-26T13:30:51;11.40;;;4.70;;
69998;SDS011;57339;52.156;5.372;2024-02-26T13:33:18;11.80;;;5.22;;
69998;SDS011;57339;52.156;5.372;2024-02-26T13:35:47;12.65;;;5.18;;
69998;SDS011;57339;52.156;5.372;2024-02-26T13:38:14;13.95;;;5.68;;
69998;SDS011;57339;52.156;5.372;2024-02-26T13:40:42;14.57;;;6.43;;
69998;SDS011;57339;52.156;5.372;2024-02-26T13:43:09;14.15;;;6.43;;
69998;SDS011;57339;52.156;5.372;2024-02-26T13:45:37;11.65;;;5.15;;
69998;SDS011;57339;52.156;5.372;2024-02-26T13:48:06;12.27;;;5.60;;
69998;SDS011;57339;52.156;5.372;2024-02-26T13:50:38;10.40;;;3.70;;
69998;SDS011;57339;52.156;5.372;2024-02-26T13:53:05;11.00;;;5.40;;
69998;SDS011;57339;52.156;5.372;2024-02-26T13:55:36;13.18;;;5.10;;
69998;SDS011;57339;52.156;5.372;2024-02-26T13:58:04;9.65;;;3.83;;
69998;SDS011;57339;52.156;5.372;2024-02-26T14:00:31;11.48;;;4.95;;
69998;SDS011;57339;52.156;5.372;2024-02-26T14:03:00;17.98;;;7.20;;
69998;SDS011;57339;52.156;5.372;2024-02-26T14:05:29;13.67;;;5.73;;
69998;SDS011;57339;52.156;5.372;2024-02-26T14:07:57;13.30;;;6.20;;
69998;SDS011;57339;52.156;5.372;2024-02-26T14:10:25;13.70;;;5.25;;
69998;SDS011;57339;52.156;5.372;2024-02-26T14:12:53;11.52;;;4.93;;
69998;SDS011;57339;52.156;5.372;2024-02-26T14:15:29;11.63;;;5.30;;
69998;SDS011;57339;52.156;5.372;2024-02-26T14:18:01;9.67;;;4.07;;
69998;SDS011;57339;52.156;5.372;2024-02-26T14:20:44;12.65;;;5.35;;
69998;SDS011;57339;52.156;5.372;2024-02-26T14:23:28;13.50;;;5.10;;
69998;SDS011;57339;52.156;5.372;2024-02-26T14:26:24;10.90;;;4.18;;
69998;SDS011;57339;52.156;5.372;2024-02-26T14:28:56;11.80;;;5.40;;
69998;SDS011;57339;52.156;5.372;2024-02-26T14:31:24;9.40;;;4.00;;
69998;SDS011;57339;52.156;5.372;2024-02-26T14:34:22;10.07;;;4.38;;
69998;SDS011;57339;52.156;5.372;2024-02-26T14:37:17;10.93;;;4.80;;
69998;SDS011;57339;52.156;5.372;2024-02-26T14:39:52;12.18;;;4.88;;
69998;SDS011;57339;52.156;5.372;2024-02-26T14:42:36;11.50;;;5.18;;
69998;SDS011;57339;52.156;5.372;2024-02-26T14:45:32;11.73;;;5.17;;
69998;SDS011;57339;52.156;5.372;2024-02-26T14:48:15;10.52;;;4.38;;
69998;SDS011;57339;52.156;5.372;2024-02-26T14:50:44;11.25;;;4.90;;
69998;SDS011;57339;52.156;5.372;2024-02-26T14:53:15;12.32;;;4.60;;
69998;SDS011;57339;52.156;5.372;2024-02-26T14:55:57;13.55;;;5.50;;
69998;SDS011;57339;52.156;5.372;2024-02-26T14:58:42;9.43;;;3.73;;
69998;SDS011;57339;52.156;5.372;2024-02-26T15:01:11;10.68;;;4.20;;